^^
Datos históricos de la estación: Murcia-Puente Tocinos
Diario Informe para Abril 19, 2019 Unidades:  Métrico    Ingés   Ambas
Diario Semanal Mensual Anual
  Máxima: Mínima: Promedio:
Temperatura: 12.5 °C 6.7 °C 9.6 °C
Punto de rocio: 7.6 °C 2.9 °C 5.5 °C
Humedad: 85.5% 65% 76%
Velocidad viento: 13km/h 0km/h 5.7km/h
Racha viento: 22.5km/h - -
Viento- - SSO
Presión: 1018.5 hPa 1010.2 hPa -
Precipitación: 0.0 mm    
 
 
Tabla de datos para Abril 19, 2019
Hora Temperatura Punto de rocio Presión Viento Velocidad viento Racha viento Humedad Intensidad lluvia(por hora) Nubes
00:04 9.7 °C 6.2 °C 1018.5 hPa SSO 5.8 km/h 11.3 km/h 78.5% 0.0 mm
00:09 9.7 °C 6.2 °C 1018.5 hPa Sur 6.5 km/h 9.7 km/h 79% 0.0 mm
00:14 9.7 °C 6.2 °C 1018.4 hPa SSE 5.7 km/h 9.7 km/h 79% 0.0 mm
00:19 9.6 °C 6.1 °C 1018.4 hPa SSE 5 km/h 8 km/h 79% 0.0 mm
00:24 9.5 °C 6.1 °C 1018.4 hPa Sur 4.8 km/h 8 km/h 79.3% 0.0 mm
00:29 9.5 °C 6.2 °C 1018.1 hPa SSO 4.7 km/h 8.4 km/h 80% 0.0 mm
00:34 9.5 °C 6.2 °C 1018.1 hPa SSE 4.8 km/h 8 km/h 80% 0.0 mm
00:39 9.4 °C 6.1 °C 1018.1 hPa Sur 5 km/h 8.7 km/h 80% 0.0 mm
00:44 9.4 °C 6.1 °C 1018.0 hPa Sur 5.4 km/h 10 km/h 80% 0.0 mm
00:49 9.3 °C 6 °C 1018.0 hPa Sur 5.8 km/h 10 km/h 80% 0.0 mm
00:54 9.3 °C 6 °C 1018.0 hPa Sur 6.1 km/h 9.7 km/h 80% 0.0 mm
00:59 9.3 °C 6 °C 1017.9 hPa SSO 6.5 km/h 10 km/h 80.2% 0.0 mm
01:04 9.3 °C 6.2 °C 1017.9 hPa SSO 6.5 km/h 13 km/h 80.9% 0.0 mm
01:09 9.2 °C 6.1 °C 1017.9 hPa SSO 6.5 km/h 13 km/h 80.8% 0.0 mm
01:14 9.2 °C 6.1 °C 1017.8 hPa SSO 7 km/h 13 km/h 81% 0.0 mm
01:19 9.2 °C 6.1 °C 1017.8 hPa SSO 7.6 km/h 12.9 km/h 81% 0.0 mm
01:24 9.2 °C 6.1 °C 1017.8 hPa SSO 7.3 km/h 11.9 km/h 81% 0.0 mm
01:29 9.1 °C 5.9 °C 1017.6 hPa Sur 6.9 km/h 11.9 km/h 80.4% 0.0 mm
01:34 9.1 °C 5.9 °C 1017.6 hPa SSE 6.9 km/h 11.3 km/h 80.2% 0.0 mm
01:39 9 °C 5.8 °C 1017.6 hPa Sur 6.9 km/h 9.7 km/h 80.7% 0.0 mm
01:44 8.9 °C 5.8 °C 1017.5 hPa Sur 6 km/h 8.4 km/h 80.8% 0.0 mm
01:49 8.9 °C 5.8 °C 1017.5 hPa SSE 5 km/h 8 km/h 81% 0.0 mm
01:54 8.8 °C 5.7 °C 1017.5 hPa Sur 5 km/h 8.7 km/h 81% 0.0 mm
01:59 8.7 °C 5.6 °C 1017.4 hPa SSO 5 km/h 9.7 km/h 81% 0.0 mm
02:04 8.7 °C 5.6 °C 1017.4 hPa SO 5.8 km/h 9.7 km/h 81% 0.0 mm
02:09 8.7 °C 5.5 °C 1017.4 hPa Sur 6.5 km/h 9.7 km/h 80.4% 0.0 mm
02:14 8.7 °C 5.4 °C 1017.4 hPa SSE 5.6 km/h 8 km/h 80% 0.0 mm
02:19 8.7 °C 5.4 °C 1017.4 hPa SSE 4.7 km/h 9.5 km/h 80% 0.0 mm
02:24 8.6 °C 5.3 °C 1017.4 hPa SSE 4.7 km/h 9.7 km/h 80% 0.0 mm
02:29 8.4 °C 5.1 °C 1017.3 hPa SSE 4.7 km/h 9.7 km/h 80% 0.0 mm
02:34 8.2 °C 5.1 °C 1017.3 hPa Sur 5.2 km/h 11.1 km/h 80.4% 0.0 mm
02:39 8.2 °C 5 °C 1017.6 hPa Sur 5.8 km/h 13 km/h 80.4% 0.0 mm
02:44 8.1 °C 4.7 °C 1017.6 hPa Sur 6.1 km/h 12.9 km/h 79.5% 0.0 mm
02:49 8.1 °C 4.6 °C 1017.6 hPa SSE 6.5 km/h 9.5 km/h 78.9% 0.0 mm
02:54 8.1 °C 4.5 °C 1017.6 hPa SSE 6.5 km/h 11.1 km/h 78% 0.0 mm
02:59 8.1 °C 4.5 °C 1017.6 hPa Sur 6.5 km/h 11.3 km/h 78% 0.0 mm
03:04 8 °C 4.4 °C 1017.6 hPa Sur 6.5 km/h 9.7 km/h 78% 0.0 mm
03:09 8.1 °C 4.5 °C 1017.6 hPa SSE 6.5 km/h 10 km/h 78% 0.0 mm
03:14 8 °C 4.4 °C 1017.5 hPa SSE 6.5 km/h 11.1 km/h 78% 0.0 mm
03:19 7.9 °C 4.5 °C 1017.5 hPa SE 6.5 km/h 11.3 km/h 78.6% 0.0 mm
03:24 7.8 °C 4.4 °C 1017.5 hPa SSO 5.7 km/h 8.7 km/h 79% 0.0 mm
03:29 7.8 °C 4.5 °C 1017.3 hPa OSO 5 km/h 9.7 km/h 79.6% 0.0 mm
03:34 7.8 °C 4.4 °C 1017.3 hPa SO 5 km/h 8 km/h 79% 0.0 mm
03:39 7.8 °C 4.3 °C 1017.3 hPa SO 5 km/h 8 km/h 78.6% 0.0 mm
03:44 7.8 °C 4.2 °C 1017.3 hPa OSO 4.4 km/h 11.9 km/h 77.7% 0.0 mm
03:49 7.8 °C 3.9 °C 1017.3 hPa OSO 3.9 km/h 11.3 km/h 76.4% 0.0 mm
03:54 7.7 °C 3.6 °C 1017.6 hPa SO 4.4 km/h 11.3 km/h 75.1% 0.0 mm
03:59 7.8 °C 3.8 °C 1017.6 hPa SE 5 km/h 10 km/h 76% 0.0 mm
04:04 7.7 °C 4 °C 1017.6 hPa SSE 5.4 km/h 13 km/h 77.6% 0.0 mm
04:09 7.5 °C 3.9 °C 1017.7 hPa Sur 5.8 km/h 12.9 km/h 78% 0.0 mm
04:14 7.3 °C 3.8 °C 1017.7 hPa Sur 7.1 km/h 15.6 km/h 78% 0.0 mm
04:19 7.2 °C 3.7 °C 1017.7 hPa SSE 8.4 km/h 16.1 km/h 78.5% 0.0 mm
04:24 7 °C 3.7 °C 1017.7 hPa SSE 9.2 km/h 16.7 km/h 79.4% 0.0 mm
04:29 6.8 °C 3.7 °C 1017.7 hPa Sur 10 km/h 16.1 km/h 80.7% 0.0 mm
04:34 6.8 °C 3.8 °C 1017.7 hPa Sur 9.7 km/h 13 km/h 81.2% 0.0 mm
04:39 6.8 °C 3.9 °C 1017.7 hPa SO 9.5 km/h 12.9 km/h 81.7% 0.0 mm
04:44 6.9 °C 3.9 °C 1017.6 hPa SSO 7.5 km/h 11.3 km/h 81% 0.0 mm
04:49 6.9 °C 3.7 °C 1017.6 hPa SSO 5.8 km/h 8 km/h 80.3% 0.0 mm
04:54 7 °C 3.8 °C 1017.6 hPa SSO 5.2 km/h 8 km/h 79.9% 0.0 mm
04:59 7.2 °C 3.7 °C 1017.3 hPa Sur 4.7 km/h 10 km/h 79% 0.0 mm
05:04 7.2 °C 3.7 °C 1017.3 hPa SO 4.8 km/h 9.7 km/h 78.7% 0.0 mm
05:09 7.2 °C 3.6 °C 1017.4 hPa OSO 5 km/h 8 km/h 78% 0.0 mm
05:14 7.2 °C 3.5 °C 1017.4 hPa OSO 5 km/h 8 km/h 77.2% 0.0 mm
05:19 7.1 °C 3.4 °C 1017.4 hPa SO 5 km/h 8.4 km/h 77% 0.0 mm
05:24 7.1 °C 3.3 °C 1017.5 hPa SO 5 km/h 8 km/h 77% 0.0 mm
05:29 7.2 °C 3.4 °C 1017.5 hPa Sur 5 km/h 9.3 km/h 77% 0.0 mm
05:34 7.3 °C 3.5 °C 1017.5 hPa SE 5 km/h 9.7 km/h 77% 0.0 mm
05:39 7.3 °C 3.5 °C 1017.5 hPa SSE 5 km/h 10.3 km/h 77% 0.0 mm
05:44 7.2 °C 3.5 °C 1017.3 hPa SE 6 km/h 11.9 km/h 77.5% 0.0 mm
05:49 6.9 °C 3.4 °C 1017.3 hPa SSE 6.9 km/h 13 km/h 78.5% 0.0 mm
05:54 6.8 °C 3.4 °C 1017.3 hPa Sur 7.3 km/h 12.9 km/h 79% 0.0 mm
05:59 6.7 °C 3.3 °C 1017.2 hPa SSO 7.6 km/h 9.7 km/h 79% 0.0 mm
06:04 6.8 °C 3.4 °C 1017.2 hPa Sur 7 km/h 11.1 km/h 79% 0.0 mm
06:09 6.8 °C 3.4 °C 1017.2 hPa Sur 6.5 km/h 13 km/h 79% 0.0 mm
06:14 6.9 °C 3.3 °C 1017.1 hPa Sur 7.4 km/h 13 km/h 78% 0.0 mm
06:19 6.9 °C 3.3 °C 1017.1 hPa SO 8.4 km/h 12.9 km/h 78% 0.0 mm
06:24 7 °C 3.3 °C 1017.3 hPa SO 7 km/h 13.7 km/h 77.6% 0.0 mm
06:29 7.2 °C 3.3 °C 1017.3 hPa SO 5.8 km/h 14.8 km/h 76.5% 0.0 mm
06:34 7.2 °C 3.3 °C 1017.3 hPa SSO 7.2 km/h 14.5 km/h 76% 0.0 mm
06:39 7.3 °C 3.2 °C 1017.5 hPa SSO 8.4 km/h 11.3 km/h 75% 0.0 mm
06:44 7.3 °C 3 °C 1017.5 hPa SSO 7.6 km/h 11.9 km/h 74.3% 0.0 mm
06:49 7.3 °C 2.9 °C 1017.5 hPa Sur 6.9 km/h 11.3 km/h 74% 0.0 mm
06:54 7.3 °C 3.1 °C 1017.5 hPa Sur 6.7 km/h 9.7 km/h 74.7% 0.0 mm
06:59 7.2 °C 3.1 °C 1017.4 hPa Sur 6.5 km/h 11.1 km/h 75% 0.0 mm
07:04 7.2 °C 3.1 °C 1017.4 hPa Sur 6.7 km/h 11.3 km/h 75.5% 0.0 mm
07:09 7.1 °C 3.2 °C 1017.5 hPa SSE 6.9 km/h 11.3 km/h 76% 0.0 mm
07:14 7.1 °C 3.2 °C 1017.5 hPa SSE 6.7 km/h 9.7 km/h 76.4% 0.0 mm
07:19 7 °C 3.3 °C 1017.5 hPa SSE 6.5 km/h 10.3 km/h 77.1% 0.0 mm
07:24 6.9 °C 3.3 °C 1017.5 hPa SSE 6.5 km/h 11.3 km/h 78% 0.0 mm
07:29 6.8 °C 3.2 °C 1017.5 hPa Sur 6.5 km/h 11.3 km/h 78% 0.0 mm
07:34 6.8 °C 3.4 °C 1017.5 hPa Sur 6.7 km/h 11.3 km/h 78.8% 0.0 mm
07:39 6.8 °C 3.4 °C 1017.8 hPa Sur 6.9 km/h 11.3 km/h 79% 0.0 mm
07:44 6.8 °C 3.4 °C 1017.8 hPa Sur 6.7 km/h 11.1 km/h 79% 0.0 mm
07:49 6.9 °C 3.5 °C 1017.8 hPa SSO 6.5 km/h 11.3 km/h 79% 0.0 mm
07:54 7.1 °C 3.6 °C 1018.0 hPa SSO 6.7 km/h 10 km/h 78.1% 0.0 mm
07:59 7.3 °C 3.6 °C 1018.0 hPa SSO 6.9 km/h 10 km/h 77.1% 0.0 mm
08:04 7.5 °C 3.5 °C 1018.0 hPa SSE 6.3 km/h 10.3 km/h 76.2% 0.0 mm
08:09 7.5 °C 3.6 °C 1018.0 hPa SSO 5.8 km/h 13 km/h 76% 0.0 mm
08:14 7.5 °C 3.5 °C 1018.0 hPa SSO 6.6 km/h 12.9 km/h 75.7% 0.0 mm
08:19 7.6 °C 3.4 °C 1018.0 hPa SSO 7.6 km/h 11.3 km/h 75% 0.0 mm
08:24 7.7 °C 3.3 °C 1018.2 hPa SO 7.2 km/h 11.3 km/h 74% 0.0 mm
08:29 7.7 °C 3.3 °C 1018.2 hPa SO 6.9 km/h 11.3 km/h 74% 0.0 mm
08:34 7.7 °C 3.2 °C 1018.2 hPa Sur 6.4 km/h 11.1 km/h 73.2% 0.0 mm
08:39 7.7 °C 3.3 °C 1018.2 hPa SE 5.8 km/h 11.3 km/h 74% 0.0 mm
08:44 7.5 °C 3.3 °C 1017.8 hPa SSE 6.3 km/h 11.3 km/h 74.9% 0.0 mm
08:49 7.3 °C 3.4 °C 1017.8 hPa SSE 6.9 km/h 9.7 km/h 76% 0.0 mm
08:54 7.2 °C 3.4 °C 1017.8 hPa SE 6.4 km/h 9.7 km/h 76.8% 0.0 mm
08:59 7.1 °C 3.4 °C 1017.5 hPa SSO 5.8 km/h 9.5 km/h 77.6% 0.0 mm
09:04 7.1 °C 3.5 °C 1017.5 hPa OSO 5.2 km/h 9.7 km/h 78% 0.0 mm
09:09 7.2 °C 3.5 °C 1018.1 hPa OSO 4.7 km/h 15.6 km/h 77.8% 0.0 mm
09:14 7.3 °C 3.5 °C 1018.1 hPa SSO 6.5 km/h 16.1 km/h 76.8% 0.0 mm
09:19 7.5 °C 3.4 °C 1018.1 hPa Sur 8.4 km/h 14.8 km/h 75.6% 0.0 mm
09:24 7.7 °C 3.4 °C 1018.1 hPa SSE 9.2 km/h 17.2 km/h 74.4% 0.0 mm
09:29 7.8 °C 3.5 °C 1018.0 hPa SE 10 km/h 20.1 km/h 74.2% 0.0 mm
09:34 7.7 °C 3.6 °C 1018.0 hPa SE 11 km/h 20.9 km/h 75.4% 0.0 mm
09:39 7.5 °C 3.6 °C 1018.0 hPa SE 11.9 km/h 20.9 km/h 76.3% 0.0 mm
09:44 7.4 °C 3.6 °C 1016.9 hPa ESE 11 km/h 14.5 km/h 77% 0.0 mm
09:49 7.4 °C 3.6 °C 1016.9 hPa Este 10 km/h 14.5 km/h 77% 0.0 mm
09:54 7.4 °C 3.7 °C 1016.9 hPa ENE 8.8 km/h 14.5 km/h 77% 0.0 mm
09:59 7.6 °C 3.8 °C 1015.4 hPa NE 7.6 km/h 11.3 km/h 77% 0.0 mm
10:04 7.8 °C 4 °C 1015.4 hPa NO 6.6 km/h 16.7 km/h 77% 0.0 mm
10:09 7.9 °C 4.1 °C 1015.4 hPa NO 5.8 km/h 16.1 km/h 76.8% 0.0 mm
10:14 8 °C 4.1 °C 1015.4 hPa NNO 7.2 km/h 14.5 km/h 76.6% 0.0 mm
10:19 8 °C 4.2 °C 1015.4 hPa NNO 8.7 km/h 14.8 km/h 77% 0.0 mm
10:24 8.1 °C 4.3 °C 1015.8 hPa ONO 8.1 km/h 14.8 km/h 77% 0.0 mm
10:29 8.2 °C 4.4 °C 1015.8 hPa ONO 7.6 km/h 19 km/h 77% 0.0 mm
10:34 8.3 °C 4.4 °C 1015.8 hPa Oeste 8.8 km/h 19.3 km/h 76.4% 0.0 mm
10:39 8.5 °C 4.4 °C 1016.1 hPa Oeste 10 km/h 14.5 km/h 75.2% 0.0 mm
10:44 8.7 °C 4.4 °C 1016.1 hPa Oeste 7.3 km/h 11.3 km/h 74% 0.0 mm
10:49 8.9 °C 4.3 °C 1016.1 hPa SO 5 km/h 8 km/h 72.7% 0.0 mm
10:54 9 °C 4.2 °C 1016.1 hPa OSO 4.8 km/h 8 km/h 71.7% 0.0 mm
10:59 9.2 °C 4.2 °C 1015.8 hPa ONO 4.7 km/h 8 km/h 71% 0.0 mm
11:04 9.3 °C 4.3 °C 1015.8 hPa NNO 3.7 km/h 7.4 km/h 71% 0.0 mm
11:09 9.4 °C 4.4 °C 1015.8 hPa NNE 2.9 km/h 8.4 km/h 71% 0.0 mm
11:14 9.5 °C 4.3 °C 1015.6 hPa NNO 3.4 km/h 8 km/h 70.1% 0.0 mm
11:19 9.6 °C 4.4 °C 1015.6 hPa NNO 3.9 km/h 8 km/h 70% 0.0 mm
11:24 9.7 °C 4.5 °C 1016.7 hPa ONO 3.5 km/h 10.3 km/h 70% 0.0 mm
11:29 9.8 °C 4.6 °C 1016.7 hPa Oeste 3.2 km/h 11.3 km/h 70% 0.0 mm
11:34 10 °C 4.8 °C 1016.7 hPa SSO 4.1 km/h 11.3 km/h 70% 0.0 mm
11:39 10.3 °C 4.8 °C 1016.8 hPa SSE 5 km/h 14.8 km/h 68.9% 0.0 mm
11:44 10.5 °C 4.8 °C 1016.8 hPa SSE 7.5 km/h 20.4 km/h 68% 0.0 mm
11:49 10.5 °C 5 °C 1016.8 hPa SSE 10 km/h 22.5 km/h 68.4% 0.0 mm
11:54 10.3 °C 5 °C 1016.8 hPa SSE 11.5 km/h 22.5 km/h 69.8% 0.0 mm
11:59 10.1 °C 5 °C 1016.7 hPa SSO 13 km/h 20.9 km/h 70.5% 0.0 mm
12:04 10.1 °C 4.9 °C 1016.7 hPa SSO 11.1 km/h 14.5 km/h 70% 0.0 mm
12:09 10.2 °C 5 °C 1016.9 hPa SO 9.5 km/h 12.9 km/h 70% 0.0 mm
12:14 10.4 °C 5 °C 1016.9 hPa SO 8 km/h 11.3 km/h 69.1% 0.0 mm
12:19 10.7 °C 5.2 °C 1016.9 hPa SO 6.5 km/h 11.3 km/h 68.9% 0.0 mm
12:24 10.8 °C 5.1 °C 1016.9 hPa SSO 6.5 km/h 11.3 km/h 68.1% 0.0 mm
12:29 10.9 °C 5.1 °C 1016.7 hPa Sur 6.5 km/h 11.9 km/h 67.4% 0.0 mm
12:34 11.1 °C 5.1 °C 1016.7 hPa SSE 7.1 km/h 13 km/h 66.4% 0.0 mm
12:39 11.2 °C 5 °C 1016.7 hPa SSO 7.6 km/h 12.9 km/h 66% 0.0 mm
12:44 11.2 °C 5 °C 1016.1 hPa SO 7 km/h 9.7 km/h 65.5% 0.0 mm
12:49 11.3 °C 5 °C 1016.1 hPa OSO 6.5 km/h 10 km/h 65% 0.0 mm
12:54 11.4 °C 5.1 °C 1016.1 hPa SSO 6.1 km/h 9.7 km/h 65% 0.0 mm
12:59 11.5 °C 5.2 °C 1016.0 hPa SSO 5.8 km/h 11.1 km/h 65.4% 0.0 mm
13:04 11.5 °C 5.2 °C 1016.0 hPa SSO 6.4 km/h 11.3 km/h 65.1% 0.0 mm
13:09 11.6 °C 5.4 °C 1016.0 hPa Sur 6.9 km/h 11.3 km/h 65.7% 0.0 mm
13:14 11.6 °C 5.3 °C 1016.0 hPa SSE 6.9 km/h 13 km/h 65.1% 0.0 mm
13:19 11.7 °C 5.3 °C 1016.0 hPa SSE 6.9 km/h 12.9 km/h 65% 0.0 mm
13:24 11.7 °C 5.5 °C 1016.0 hPa Sur 7.3 km/h 10 km/h 65.9% 0.0 mm
13:29 11.7 °C 5.5 °C 1015.9 hPa SSO 7.6 km/h 9.7 km/h 66% 0.0 mm
13:34 11.7 °C 5.5 °C 1015.9 hPa Sur 6.7 km/h 9.7 km/h 66% 0.0 mm
13:39 11.7 °C 5.6 °C 1015.9 hPa Sur 5.8 km/h 8.7 km/h 66% 0.0 mm
13:44 11.7 °C 5.6 °C 1015.4 hPa SE 5.4 km/h 9.7 km/h 66% 0.0 mm
13:49 11.8 °C 5.7 °C 1015.4 hPa SSE 5 km/h 9.7 km/h 66% 0.0 mm
13:54 11.8 °C 5.5 °C 1015.4 hPa SSE 5.4 km/h 9.7 km/h 65.3% 0.0 mm
13:59 11.9 °C 5.5 °C 1015.1 hPa ESE 5.8 km/h 8 km/h 65.2% 0.0 mm
14:04 11.9 °C 5.5 °C 1015.1 hPa Este 4.8 km/h 8 km/h 65% 0.0 mm
14:09 12 °C 5.6 °C 1015.1 hPa Este 3.9 km/h 5.6 km/h 65.2% 0.0 mm
14:14 12.1 °C 5.8 °C 1015.1 hPa ONO 3.4 km/h 7.6 km/h 65.4% 0.0 mm
14:19 12.1 °C 6.2 °C 1015.1 hPa North 2.9 km/h 8 km/h 67.1% 0.0 mm
14:24 12.1 °C 6.3 °C 1015.1 hPa North 3.8 km/h 10 km/h 67.6% 0.0 mm
14:29 11.9 °C 6.4 °C 1014.5 hPa ENE 4.7 km/h 9.7 km/h 69% 0.0 mm
14:34 11.9 °C 6.5 °C 1014.5 hPa ENE 4.2 km/h 8 km/h 69.3% 0.0 mm
14:39 11.9 °C 6.6 °C 1014.5 hPa NE 3.9 km/h 8 km/h 70% 0.0 mm
14:44 11.8 °C 6.7 °C 1013.5 hPa NE 3.9 km/h 8 km/h 71% 0.0 mm
14:49 11.8 °C 6.8 °C 1013.5 hPa Este 3.9 km/h 8 km/h 71.4% 0.0 mm
14:54 11.8 °C 6.8 °C 1013.5 hPa Este 3.9 km/h 8 km/h 71.7% 0.0 mm
14:59 11.8 °C 6.9 °C 1012.9 hPa ENE 3.9 km/h 8 km/h 72% 0.0 mm
15:04 11.7 °C 6.7 °C 1012.9 hPa NE 3.3 km/h 8 km/h 71.5% 0.0 mm
15:09 11.8 °C 6.7 °C 1013.2 hPa Oeste 2.9 km/h 5.6 km/h 71% 0.0 mm
15:14 11.8 °C 6.8 °C 1013.2 hPa ONO 2.9 km/h 5 km/h 71.5% 0.0 mm
15:19 11.8 °C 6.7 °C 1013.2 hPa NNO 2.9 km/h 7.4 km/h 70.8% 0.0 mm
15:24 11.8 °C 6.5 °C 1013.2 hPa NE 2.9 km/h 8 km/h 70.2% 0.0 mm
15:29 11.8 °C 6.6 °C 1013.0 hPa North 2.9 km/h 10.3 km/h 70.2% 0.0 mm
15:34 11.9 °C 6.8 °C 1013.0 hPa ONO 3.8 km/h 11.3 km/h 71.1% 0.0 mm
15:39 11.9 °C 6.9 °C 1013.6 hPa SSO 4.7 km/h 13.7 km/h 71.8% 0.0 mm
15:44 11.9 °C 6.7 °C 1013.6 hPa SSO 5.8 km/h 14.5 km/h 70.6% 0.0 mm
15:49 12 °C 6.7 °C 1013.6 hPa SSO 6.9 km/h 11.3 km/h 70% 0.0 mm
15:54 12.3 °C 6.8 °C 1014.0 hPa SSO 6.9 km/h 11.3 km/h 69.4% 0.0 mm
15:59 12.4 °C 7 °C 1014.0 hPa OSO 6.9 km/h 9.7 km/h 70% 0.0 mm
16:04 12.5 °C 7.3 °C 1014.0 hPa SSO 5.9 km/h 9.7 km/h 70.6% 0.0 mm
16:09 12.5 °C 7.4 °C 1014.0 hPa SSO 5 km/h 8 km/h 71% 0.0 mm
16:14 12.5 °C 7.4 °C 1013.3 hPa Oeste 4.4 km/h 9.3 km/h 71% 0.0 mm
16:19 12.4 °C 7.3 °C 1013.3 hPa SSO 3.9 km/h 9.7 km/h 71% 0.0 mm
16:24 12.3 °C 7.2 °C 1013.4 hPa SSO 4.4 km/h 9.7 km/h 71% 0.0 mm
16:29 12.3 °C 7.2 °C 1013.4 hPa OSO 5 km/h 8 km/h 71% 0.0 mm
16:34 12.3 °C 7.2 °C 1013.4 hPa SSO 4.4 km/h 11.1 km/h 71% 0.0 mm
16:39 12.3 °C 7.2 °C 1013.5 hPa SSE 3.9 km/h 11.3 km/h 71% 0.0 mm
16:44 12.3 °C 7.2 °C 1013.5 hPa SSE 4.9 km/h 11.3 km/h 71% 0.0 mm
16:49 12.3 °C 7.2 °C 1013.5 hPa SSE 5.8 km/h 10 km/h 71% 0.0 mm
16:54 12.3 °C 7.3 °C 1013.5 hPa SE 6.3 km/h 9.7 km/h 71.7% 0.0 mm
16:59 12.3 °C 7.3 °C 1013.2 hPa SO 6.9 km/h 9.7 km/h 71.6% 0.0 mm
17:04 12.3 °C 7.2 °C 1013.2 hPa OSO 5.7 km/h 9.7 km/h 71.3% 0.0 mm
17:09 12.3 °C 7.4 °C 1013.2 hPa SSO 4.6 km/h 8 km/h 72% 0.0 mm
17:14 12.3 °C 7.3 °C 1013.2 hPa Sur 3.4 km/h 5.8 km/h 72% 0.0 mm
17:19 12.2 °C 7.3 °C 1013.2 hPa ESE 2.2 km/h 6.4 km/h 72% 0.0 mm
17:24 12.2 °C 7.3 °C 1013.5 hPa ESE 2.6 km/h 7.4 km/h 72% 0.0 mm
17:29 12.2 °C 7.3 °C 1013.5 hPa ONO 2.9 km/h 8 km/h 72% 0.0 mm
17:34 12.2 °C 7.4 °C 1013.5 hPa ONO 2.9 km/h 4.8 km/h 72.5% 0.0 mm
17:39 12.2 °C 7.5 °C 1013.5 hPa ONO 2.9 km/h 3.9 km/h 73% 0.0 mm
17:44 12.2 °C 7.5 °C 1013.5 hPa ONO 1.4 km/h 4.7 km/h 73% 0.0 mm
17:49 12.1 °C 7.4 °C 1013.5 hPa Calm   5.6 km/h 73% 0.0 mm
17:54 12.1 °C 7.4 °C 1013.5 hPa ONO 1.4 km/h 4.8 km/h 73% 0.0 mm
17:59 12 °C 7.4 °C 1013.5 hPa ONO 2.9 km/h 3.9 km/h 73.5% 0.0 mm
18:04 11.9 °C 7.4 °C 1013.5 hPa ONO 2.5 km/h 3.2 km/h 74% 0.0 mm
18:09 11.9 °C 7.4 °C 1013.6 hPa ONO 2.2 km/h 4.7 km/h 74% 0.0 mm
18:14 11.9 °C 7.4 °C 1013.6 hPa SE 2.6 km/h 7.6 km/h 74% 0.0 mm
18:19 11.8 °C 7.3 °C 1013.6 hPa ESE 2.9 km/h 8 km/h 74% 0.0 mm
18:24 11.7 °C 7.3 °C 1013.6 hPa SE 3.4 km/h 9.5 km/h 74% 0.0 mm
18:29 11.6 °C 7.1 °C 1013.5 hPa SE 3.9 km/h 9.7 km/h 74% 0.0 mm
18:34 11.5 °C 7.2 °C 1013.5 hPa SSE 4.4 km/h 10 km/h 75% 0.0 mm
18:39 11.4 °C 7.1 °C 1013.5 hPa SSE 5 km/h 9.7 km/h 75% 0.0 mm
18:44 11.4 °C 7.1 °C 1013.5 hPa SE 5 km/h 9.7 km/h 75% 0.0 mm
18:49 11.3 °C 7 °C 1013.5 hPa ESE 5 km/h 8 km/h 75% 0.0 mm
18:54 11.3 °C 7 °C 1013.5 hPa ESE 4.1 km/h 6.4 km/h 75% 0.0 mm
18:59 11.2 °C 7 °C 1013.1 hPa ESE 3.2 km/h 6.4 km/h 75.2% 0.0 mm
19:04 11.2 °C 7.1 °C 1013.1 hPa ENE 2.7 km/h 7.4 km/h 76% 0.0 mm
19:09 11.1 °C 7 °C 1013.1 hPa NNE 2.2 km/h 8 km/h 76% 0.0 mm
19:14 11 °C 7.2 °C 1012.5 hPa NNE 2.6 km/h 5.6 km/h 77% 0.0 mm
19:19 11 °C 7.1 °C 1012.5 hPa NNE 2.9 km/h 5.8 km/h 77% 0.0 mm
19:24 11 °C 7.1 °C 1012.6 hPa NNO 3.1 km/h 9.3 km/h 77% 0.0 mm
19:29 10.9 °C 7.1 °C 1012.6 hPa NO 3.2 km/h 9.7 km/h 77.5% 0.0 mm
19:34 10.7 °C 7.1 °C 1012.6 hPa NO 4 km/h 8 km/h 78.4% 0.0 mm
19:39 10.6 °C 7.1 °C 1012.6 hPa NNO 4.6 km/h 8.4 km/h 79.2% 0.0 mm
19:44 10.4 °C 7.1 °C 1012.5 hPa NNE 4.2 km/h 8.4 km/h 80% 0.0 mm
19:49 10.3 °C 7.2 °C 1012.5 hPa North 3.9 km/h 8 km/h 81% 0.0 mm
19:54 10.2 °C 7.2 °C 1012.5 hPa Oeste 3.9 km/h 8.4 km/h 81.5% 0.0 mm
19:59 10.2 °C 7.3 °C 1012.5 hPa SO 3.9 km/h 8.4 km/h 82% 0.0 mm
20:04 10.2 °C 7.4 °C 1012.5 hPa OSO 4.5 km/h 8 km/h 83% 0.0 mm
20:09 10.2 °C 7.5 °C 1012.6 hPa Sur 5 km/h 8 km/h 83% 0.0 mm
20:14 10.3 °C 7.6 °C 1012.6 hPa SSE 4.8 km/h 8 km/h 83% 0.0 mm
20:19 10.4 °C 7.6 °C 1012.6 hPa SSE 4.7 km/h 8 km/h 83% 0.0 mm
20:24 10.4 °C 7.5 °C 1012.6 hPa Sur 4.2 km/h 8.7 km/h 82.2% 0.0 mm
20:29 10.4 °C 7.3 °C 1012.5 hPa Sur 3.9 km/h 10 km/h 81.6% 0.0 mm
20:34 10.3 °C 7.3 °C 1012.5 hPa Sur 5.1 km/h 9.7 km/h 81.8% 0.0 mm
20:39 10.2 °C 7.3 °C 1012.5 hPa ESE 6.5 km/h 10 km/h 82% 0.0 mm
20:44 10.2 °C 7.2 °C 1012.5 hPa SE 6.1 km/h 11.1 km/h 82% 0.0 mm
20:49 10 °C 7.1 °C 1012.5 hPa SSE 5.8 km/h 11.3 km/h 82.4% 0.0 mm
20:54 9.9 °C 7.2 °C 1012.6 hPa SSO 6.1 km/h 11.3 km/h 83% 0.0 mm
20:59 10 °C 7.3 °C 1012.6 hPa SSE 6.5 km/h 11.9 km/h 83% 0.0 mm
21:04 10.1 °C 7.3 °C 1012.6 hPa Sur 6.7 km/h 13.7 km/h 83% 0.0 mm
21:09 10.2 °C 7.3 °C 1012.6 hPa Sur 6.9 km/h 14.5 km/h 82.4% 0.0 mm
21:14 10.2 °C 7.3 °C 1012.2 hPa Sur 7.6 km/h 13 km/h 82% 0.0 mm
21:19 10.3 °C 7.3 °C 1012.2 hPa SSE 8.4 km/h 12.9 km/h 82% 0.0 mm
21:24 10.3 °C 7.3 °C 1012.2 hPa Sur 7 km/h 9.7 km/h 82% 0.0 mm
21:29 10.3 °C 7.3 °C 1011.8 hPa Sur 5.8 km/h 8 km/h 82% 0.0 mm
21:34 10.4 °C 7.3 °C 1011.8 hPa Oeste 4.8 km/h 10 km/h 81.2% 0.0 mm
21:39 10.4 °C 7.3 °C 1011.8 hPa OSO 3.9 km/h 11.1 km/h 81% 0.0 mm
21:44 10.4 °C 7.3 °C 1011.8 hPa Oeste 4.3 km/h 11.3 km/h 81% 0.0 mm
21:49 10.4 °C 7.4 °C 1011.8 hPa ONO 4.6 km/h 9.3 km/h 81.5% 0.0 mm
21:54 10.3 °C 7.4 °C 1011.8 hPa ONO 3.9 km/h 9.7 km/h 82% 0.0 mm
21:59 10.3 °C 7.3 °C 1011.4 hPa ONO 3.2 km/h 4.8 km/h 82% 0.0 mm
22:04 10.3 °C 7.3 °C 1011.4 hPa ONO 2.7 km/h 5.6 km/h 82% 0.0 mm
22:09 10.3 °C 7.3 °C 1011.4 hPa ONO 2.2 km/h 8.4 km/h 82% 0.0 mm
22:14 10.3 °C 7.4 °C 1011.4 hPa NO 3.1 km/h 8 km/h 82.5% 0.0 mm
22:19 10.2 °C 7.4 °C 1011.4 hPa NO 3.9 km/h 8 km/h 83% 0.0 mm
22:24 10.1 °C 7.3 °C 1011.4 hPa NO 3.5 km/h 8 km/h 83.2% 0.0 mm
22:29 9.9 °C 7.3 °C 1011.2 hPa NO 3.2 km/h 9.5 km/h 84% 0.0 mm
22:34 9.8 °C 7.3 °C 1011.2 hPa ONO 4.5 km/h 11.9 km/h 84.5% 0.0 mm
22:39 9.8 °C 7.4 °C 1011.3 hPa Oeste 5.8 km/h 11.3 km/h 85% 0.0 mm
22:44 9.8 °C 7.5 °C 1011.3 hPa Sur 6.1 km/h 13.7 km/h 85.5% 0.0 mm
22:49 9.9 °C 7.5 °C 1011.3 hPa SE 6.5 km/h 14.5 km/h 85.1% 0.0 mm
22:54 9.8 °C 7.4 °C 1011.3 hPa SE 8.1 km/h 14.8 km/h 85% 0.0 mm
22:59 9.8 °C 7.4 °C 1010.9 hPa SE 9.5 km/h 14.5 km/h 85% 0.0 mm
23:04 9.8 °C 7.4 °C 1010.9 hPa SSO 8.4 km/h 11.9 km/h 85% 0.0 mm
23:09 9.8 °C 7.4 °C 1010.9 hPa Oeste 7.6 km/h 14.8 km/h 85% 0.0 mm
23:14 9.8 °C 7.4 °C 1010.8 hPa ONO 7.6 km/h 14.5 km/h 85% 0.0 mm
23:19 9.8 °C 7.4 °C 1010.8 hPa Oeste 7.6 km/h 11.3 km/h 85% 0.0 mm
23:24 9.9 °C 7.5 °C 1010.8 hPa Oeste 6.2 km/h 9.7 km/h 85% 0.0 mm
23:29 9.9 °C 7.5 °C 1010.6 hPa Oeste 5 km/h 8 km/h 85% 0.0 mm
23:34 9.9 °C 7.5 °C 1010.6 hPa NO 4.3 km/h 11.1 km/h 85% 0.0 mm
23:39 9.9 °C 7.5 °C 1010.6 hPa SE 3.9 km/h 11.3 km/h 85% 0.0 mm
23:44 9.9 °C 7.5 °C 1010.4 hPa OSO 4.3 km/h 9.7 km/h 85% 0.0 mm
23:49 9.9 °C 7.5 °C 1010.4 hPa OSO 4.7 km/h 6.4 km/h 85% 0.0 mm
23:54 9.9 °C 7.5 °C 1010.4 hPa OSO 3.5 km/h 5.8 km/h 85% 0.0 mm
23:59 9.9 °C 7.6 °C 1010.2 hPa ONO 2.2 km/h 13 km/h 85% 0.0 mm
Murcia-Puente Tocinos, España
Compliments of Weather Underground - 2.75 mb

La estación de MeteoMurcia.com, publica sus datos en los siguientes proyectos:

Weather Underground PWS IMURCIAP2 Meteoclimatic www.awekas.at

W3Counter
Web Analytics